createdAt,value
2023-04-20T00:01:16.787Z,7.10
2023-04-20T00:03:44.885Z,6.90
2023-04-20T00:06:14.052Z,6.80
2023-04-20T00:08:41.999Z,6.60
2023-04-20T00:11:09.998Z,6.60
2023-04-20T00:13:37.940Z,6.50
2023-04-20T00:16:07.867Z,6.50
2023-04-20T00:18:35.830Z,6.40
2023-04-20T00:21:04.031Z,6.40
2023-04-20T00:23:31.999Z,6.30
2023-04-20T00:26:00.049Z,6.30
2023-04-20T00:28:28.005Z,6.40
2023-04-20T00:30:56.123Z,6.40
2023-04-20T00:33:25.594Z,6.50
2023-04-20T00:35:53.999Z,6.40
2023-04-20T00:38:21.927Z,6.40
2023-04-20T00:40:53.220Z,6.30
2023-04-20T00:43:21.993Z,6.30
2023-04-20T00:45:52.068Z,6.30
2023-04-20T00:48:20.990Z,6.30
2023-04-20T00:50:51.059Z,6.30
2023-04-20T00:53:20.354Z,6.30
2023-04-20T00:55:48.912Z,6.30
2023-04-20T00:58:16.866Z,6.30
2023-04-20T01:00:44.918Z,6.20
2023-04-20T01:03:13.114Z,6.20
2023-04-20T01:05:41.407Z,6.20
2023-04-20T01:08:11.066Z,6.20
2023-04-20T01:10:39.003Z,6.10
2023-04-20T01:13:07.014Z,6.10
2023-04-20T01:15:35.341Z,6.20
2023-04-20T01:18:03.947Z,6.10
2023-04-20T01:20:33.193Z,6.10
2023-04-20T01:23:02.732Z,6.10
2023-04-20T01:25:30.892Z,6.10
2023-04-20T01:27:58.891Z,6.10
2023-04-20T01:30:26.844Z,6.10
2023-04-20T01:32:54.838Z,6.10
2023-04-20T01:35:22.810Z,6.10
2023-04-20T01:37:50.838Z,6.20
2023-04-20T01:40:20.142Z,6.10
2023-04-20T01:42:48.105Z,6.10
2023-04-20T01:45:16.392Z,6.10
2023-04-20T01:47:44.379Z,6.10
2023-04-20T01:50:12.551Z,6.00
2023-04-20T01:52:40.551Z,6.10
2023-04-20T01:55:10.000Z,6.00
2023-04-20T01:57:39.415Z,6.00
2023-04-20T02:00:09.987Z,6.00
2023-04-20T02:02:38.044Z,6.10
2023-04-20T02:05:06.549Z,6.10
2023-04-20T02:07:34.589Z,6.10
2023-04-20T02:10:02.523Z,6.10
2023-04-20T02:12:30.922Z,6.00
2023-04-20T02:15:00.234Z,6.00
2023-04-20T02:17:28.237Z,5.90
2023-04-20T02:19:56.187Z,5.90
2023-04-20T02:22:24.141Z,5.80
2023-04-20T02:24:52.081Z,5.80
2023-04-20T02:27:20.080Z,5.80
2023-04-20T02:29:48.025Z,5.80
2023-04-20T02:32:17.351Z,5.90
2023-04-20T02:34:45.342Z,5.80
2023-04-20T02:37:14.163Z,5.80
2023-04-20T02:39:42.099Z,5.80
2023-04-20T02:42:10.104Z,5.90
2023-04-20T02:44:38.052Z,5.90
2023-04-20T02:47:06.532Z,5.90
2023-04-20T02:49:36.169Z,5.90
2023-04-20T02:52:04.178Z,6.00
2023-04-20T02:54:32.140Z,5.90
2023-04-20T02:57:00.125Z,5.90
2023-04-20T02:59:28.085Z,5.90
2023-04-20T03:01:56.078Z,5.90
2023-04-20T03:04:25.956Z,5.90
2023-04-20T03:06:55.877Z,5.90
2023-04-20T03:09:23.926Z,5.90
2023-04-20T03:11:51.928Z,5.90
2023-04-20T03:14:19.901Z,6.00
2023-04-20T03:16:47.897Z,6.00
2023-04-20T03:19:17.049Z,6.00
2023-04-20T03:21:46.748Z,5.90
2023-04-20T03:24:16.551Z,5.90
2023-04-20T03:26:44.516Z,5.80
2023-04-20T03:29:12.463Z,5.80
2023-04-20T03:31:40.479Z,5.80
2023-04-20T03:34:08.483Z,5.80
2023-04-20T03:36:36.684Z,5.80
2023-04-20T03:39:05.706Z,5.70
2023-04-20T03:41:35.026Z,5.70
2023-04-20T03:44:03.031Z,5.70
2023-04-20T03:46:30.988Z,5.70
2023-04-20T03:48:58.952Z,5.70
2023-04-20T03:51:27.568Z,5.60
2023-04-20T03:53:55.830Z,5.60
2023-04-20T03:56:23.822Z,5.50
2023-04-20T03:58:53.171Z,5.60
2023-04-20T04:01:21.172Z,5.60
2023-04-20T04:03:49.347Z,5.60
2023-04-20T04:06:17.392Z,5.70
2023-04-20T04:08:45.355Z,5.60
2023-04-20T04:11:13.319Z,5.60
2023-04-20T04:13:41.324Z,5.60
2023-04-20T04:16:10.700Z,5.50
2023-04-20T04:18:39.120Z,5.50
2023-04-20T04:21:10.234Z,5.50
2023-04-20T04:23:38.327Z,5.50
2023-04-20T04:26:06.459Z,5.50
2023-04-20T04:28:34.436Z,5.50
2023-04-20T04:31:06.136Z,5.50
2023-04-20T04:33:35.790Z,5.60
2023-04-20T04:36:04.058Z,5.60
2023-04-20T04:38:34.339Z,5.50
2023-04-20T04:41:02.637Z,5.50
2023-04-20T04:43:31.009Z,5.50
2023-04-20T04:45:59.413Z,5.50
2023-04-20T04:48:27.911Z,5.50
2023-04-20T04:50:57.201Z,5.60
2023-04-20T04:53:25.179Z,5.70
2023-04-20T04:55:53.185Z,5.60
2023-04-20T04:58:21.396Z,5.60
2023-04-20T05:00:49.346Z,5.50
2023-04-20T05:03:17.513Z,5.50
2023-04-20T05:05:45.638Z,5.50
2023-04-20T05:08:14.954Z,5.60
2023-04-20T05:10:42.894Z,5.60
2023-04-20T05:13:10.917Z,5.50
2023-04-20T05:15:38.901Z,5.50
2023-04-20T05:18:07.193Z,5.60
2023-04-20T05:20:35.257Z,5.60
2023-04-20T05:23:04.408Z,5.70
2023-04-20T05:25:33.850Z,5.70
2023-04-20T05:28:01.822Z,5.60
2023-04-20T05:30:29.786Z,5.60
2023-04-20T05:32:57.806Z,5.80
2023-04-20T05:35:25.764Z,5.70
2023-04-20T05:37:53.761Z,5.80
2023-04-20T05:40:21.768Z,5.80
2023-04-20T05:42:51.094Z,5.80
2023-04-20T05:45:19.106Z,5.70
2023-04-20T05:47:54.427Z,5.80
2023-04-20T05:50:22.977Z,5.70
2023-04-20T05:52:51.139Z,5.80
2023-04-20T05:55:22.057Z,5.70
2023-04-20T05:57:52.586Z,5.80
2023-04-20T06:00:23.081Z,5.90
2023-04-20T06:02:52.620Z,5.90
2023-04-20T06:05:20.973Z,5.80
2023-04-20T06:07:48.975Z,5.60
2023-04-20T06:10:17.005Z,5.80
2023-04-20T06:12:45.000Z,5.70
2023-04-20T06:15:14.757Z,5.80
2023-04-20T06:17:42.723Z,5.70
2023-04-20T06:20:11.967Z,5.80
2023-04-20T06:22:44.333Z,5.80
2023-04-20T06:25:12.551Z,5.90
2023-04-20T06:27:40.539Z,5.80
2023-04-20T06:30:10.024Z,5.70
2023-04-20T06:32:39.573Z,5.70
2023-04-20T06:35:08.919Z,5.90
2023-04-20T06:37:37.165Z,5.90
2023-04-20T06:40:08.138Z,5.90
2023-04-20T06:42:36.994Z,5.90
2023-04-20T06:45:05.754Z,5.80
2023-04-20T06:47:34.077Z,5.80
2023-04-20T06:50:07.411Z,5.80
2023-04-20T06:52:35.482Z,5.90
2023-04-20T06:55:03.598Z,5.90
2023-04-20T06:57:31.545Z,5.90
2023-04-20T06:59:59.908Z,6.00
2023-04-20T07:02:28.612Z,5.90
2023-04-20T07:05:03.192Z,6.10
2023-04-20T07:07:31.168Z,6.20
2023-04-20T07:09:59.307Z,6.30
2023-04-20T07:12:27.283Z,6.50
2023-04-20T07:14:55.709Z,6.50
2023-04-20T07:17:23.726Z,6.40
2023-04-20T07:19:52.540Z,6.50
2023-04-20T07:22:21.890Z,6.60
2023-04-20T07:24:49.860Z,6.70
2023-04-20T07:27:17.867Z,6.80
2023-04-20T07:29:45.917Z,6.90
2023-04-20T07:32:14.641Z,7.00
2023-04-20T07:34:42.754Z,7.10
2023-04-20T07:37:10.710Z,7.00
2023-04-20T07:39:40.055Z,7.00
2023-04-20T07:42:08.033Z,7.10
2023-04-20T07:44:36.718Z,7.00
2023-04-20T07:47:05.030Z,6.90
2023-04-20T07:49:33.038Z,7.00
2023-04-20T07:52:15.199Z,7.10
2023-04-20T07:54:45.750Z,7.40
2023-04-20T07:57:13.817Z,7.30
2023-04-20T07:59:41.845Z,7.30
2023-04-20T08:02:09.925Z,7.40
2023-04-20T08:04:38.917Z,7.40
2023-04-20T08:07:07.123Z,7.40
2023-04-20T08:09:35.109Z,7.30
2023-04-20T08:12:04.830Z,7.60
2023-04-20T08:14:33.692Z,7.90
2023-04-20T08:17:01.712Z,7.90
2023-04-20T08:19:29.699Z,8.20
2023-04-20T08:21:57.743Z,8.20
2023-04-20T08:24:25.739Z,8.00
2023-04-20T08:26:53.712Z,8.20
2023-04-20T08:29:23.202Z,8.30
2023-04-20T08:31:51.906Z,8.30
2023-04-20T08:34:20.178Z,8.60
2023-04-20T08:36:48.229Z,8.80
2023-04-20T08:39:24.338Z,9.00
2023-04-20T08:41:53.934Z,8.80
2023-04-20T08:44:23.489Z,8.80
2023-04-20T08:46:52.292Z,8.60
2023-04-20T08:49:21.151Z,8.90
2023-04-20T08:51:49.817Z,8.60
2023-04-20T08:54:18.124Z,8.60
2023-04-20T08:56:48.136Z,8.70
2023-04-20T08:59:16.922Z,8.90
2023-04-20T09:01:46.646Z,9.10
2023-04-20T09:04:22.656Z,9.20
2023-04-20T09:06:52.625Z,9.40
2023-04-20T09:09:22.480Z,9.60
2023-04-20T09:12:02.134Z,9.90
2023-04-20T09:14:30.336Z,9.70
2023-04-20T09:17:02.123Z,9.70
2023-04-20T09:19:30.911Z,9.30
2023-04-20T09:22:01.173Z,9.10
2023-04-20T09:24:33.661Z,9.10
2023-04-20T09:27:02.534Z,9.00
2023-04-20T09:29:30.855Z,9.10
2023-04-20T09:32:00.206Z,9.20
2023-04-20T09:34:28.448Z,9.20
2023-04-20T09:36:57.364Z,9.00
2023-04-20T09:39:26.894Z,9.00
2023-04-20T09:41:54.889Z,8.90
2023-04-20T09:44:22.892Z,8.80
2023-04-20T09:46:50.828Z,8.80
2023-04-20T09:49:21.479Z,8.80
2023-04-20T09:51:50.594Z,8.60
2023-04-20T09:54:18.737Z,8.60
2023-04-20T09:56:47.116Z,8.40
2023-04-20T09:59:15.712Z,8.60
2023-04-20T10:01:43.785Z,9.00
2023-04-20T10:04:14.505Z,8.90
2023-04-20T10:06:54.715Z,9.00
2023-04-20T10:09:24.492Z,8.80
2023-04-20T10:11:54.545Z,8.80
2023-04-20T10:14:24.594Z,8.80
2023-04-20T10:17:01.454Z,8.90
2023-04-20T10:19:39.660Z,8.80
2023-04-20T10:22:09.697Z,8.90
2023-04-20T10:24:39.049Z,9.00
2023-04-20T10:27:17.905Z,9.30
2023-04-20T10:29:47.205Z,9.50
2023-04-20T10:32:24.147Z,9.60
2023-04-20T10:35:03.502Z,9.50
2023-04-20T10:37:32.823Z,9.60
2023-04-20T10:40:01.456Z,9.60
2023-04-20T10:42:30.365Z,9.60
2023-04-20T10:44:58.333Z,9.60
2023-04-20T10:47:30.709Z,9.60
2023-04-20T10:50:07.899Z,9.60
2023-04-20T10:52:38.634Z,9.80
2023-04-20T10:55:08.449Z,9.90
2023-04-20T10:57:37.536Z,9.90
2023-04-20T11:00:16.660Z,10.00
2023-04-20T11:02:50.256Z,10.00
2023-04-20T11:05:19.304Z,10.10
2023-04-20T11:07:54.781Z,10.00
2023-04-20T11:10:24.712Z,10.20
2023-04-20T11:12:53.287Z,10.10
2023-04-20T11:15:31.673Z,10.10
2023-04-20T11:18:08.274Z,10.10
2023-04-20T11:20:37.064Z,9.90
2023-04-20T11:23:06.787Z,9.90
2023-04-20T11:25:35.382Z,10.10
2023-04-20T11:28:08.586Z,10.30
2023-04-20T11:30:41.249Z,10.50
2023-04-20T11:33:09.987Z,10.40
2023-04-20T11:35:38.887Z,10.50
2023-04-20T11:38:08.562Z,10.60
2023-04-20T11:40:37.078Z,10.90
2023-04-20T11:43:05.551Z,10.90
2023-04-20T11:45:36.225Z,10.70
2023-04-20T11:48:05.499Z,10.70
2023-04-20T11:50:33.549Z,10.60
2023-04-20T11:53:02.267Z,10.70
2023-04-20T11:55:31.833Z,10.90
2023-04-20T11:57:59.759Z,11.00
2023-04-20T12:00:28.003Z,11.00
2023-04-20T12:02:56.128Z,11.10
2023-04-20T12:05:24.387Z,11.10
2023-04-20T12:07:52.475Z,11.20
2023-04-20T12:10:20.507Z,11.50
2023-04-20T12:12:50.006Z,11.60
2023-04-20T12:15:18.188Z,11.80
2023-04-20T12:17:46.177Z,11.90
2023-04-20T12:20:15.159Z,11.90
2023-04-20T12:22:43.098Z,12.00
2023-04-20T12:25:11.316Z,12.20
2023-04-20T12:27:39.283Z,12.20
2023-04-20T12:30:10.244Z,12.30
2023-04-20T12:32:38.268Z,12.10
2023-04-20T12:35:08.291Z,11.90
2023-04-20T12:37:36.827Z,12.00
2023-04-20T12:40:06.402Z,12.30
2023-04-20T12:42:34.385Z,12.20
2023-04-20T12:45:02.364Z,12.10
2023-04-20T12:47:31.798Z,12.10
2023-04-20T12:49:59.815Z,11.80
2023-04-20T12:52:28.093Z,11.70
2023-04-20T12:54:56.135Z,11.50
2023-04-20T12:57:24.121Z,11.50
2023-04-20T12:59:52.155Z,11.50
2023-04-20T13:02:20.306Z,11.80
2023-04-20T13:04:49.758Z,11.90
2023-04-20T13:07:17.691Z,11.90
2023-04-20T13:09:45.746Z,11.80
2023-04-20T13:12:14.341Z,11.40
2023-04-20T13:14:42.781Z,11.60
2023-04-20T13:17:10.748Z,11.60
2023-04-20T13:19:38.739Z,11.70
2023-04-20T13:22:08.194Z,11.70
2023-04-20T13:24:36.378Z,11.60
2023-04-20T13:27:06.309Z,11.20
2023-04-20T13:29:34.334Z,11.20
2023-04-20T13:32:02.374Z,11.20
2023-04-20T13:34:30.462Z,11.00
2023-04-20T13:36:58.951Z,11.00
2023-04-20T13:39:28.306Z,11.10
2023-04-20T13:41:56.807Z,11.40
2023-04-20T13:44:24.774Z,11.40
2023-04-20T13:46:52.774Z,11.50
2023-04-20T13:49:22.773Z,11.60
2023-04-20T13:51:51.294Z,11.60
2023-04-20T13:54:19.524Z,11.70
2023-04-20T13:56:49.044Z,11.50
2023-04-20T13:59:17.026Z,11.30
2023-04-20T14:01:45.175Z,11.20
2023-04-20T14:04:16.834Z,11.20
2023-04-20T14:06:45.114Z,11.30
2023-04-20T14:09:13.367Z,11.30
2023-04-20T14:11:41.372Z,11.30
2023-04-20T14:14:10.834Z,11.30
2023-04-20T14:16:44.170Z,11.20
2023-04-20T14:19:12.310Z,11.20
2023-04-20T14:21:41.180Z,11.20
2023-04-20T14:24:09.499Z,11.00
2023-04-20T14:26:37.473Z,11.00
2023-04-20T14:29:05.810Z,10.80
2023-04-20T14:31:35.746Z,10.60
2023-04-20T14:34:03.785Z,10.40
2023-04-20T14:36:32.424Z,10.60
2023-04-20T14:39:00.392Z,10.40
2023-04-20T14:41:28.378Z,10.30
2023-04-20T14:43:56.372Z,10.30
2023-04-20T14:46:24.436Z,10.30
2023-04-20T14:48:53.816Z,10.20
2023-04-20T14:51:21.797Z,10.10
2023-04-20T14:53:49.921Z,10.00
2023-04-20T14:56:17.899Z,10.00
2023-04-20T14:58:47.938Z,10.00
2023-04-20T15:01:15.983Z,10.00
2023-04-20T15:03:44.464Z,9.80
2023-04-20T15:06:13.967Z,9.70
2023-04-20T15:08:42.426Z,9.80
2023-04-20T15:11:10.420Z,9.80
2023-04-20T15:13:41.057Z,9.70
2023-04-20T15:16:09.694Z,9.80
2023-04-20T15:18:37.760Z,9.80
2023-04-20T15:21:08.323Z,9.80
2023-04-20T15:23:38.142Z,9.80
2023-04-20T15:26:07.759Z,9.90
2023-04-20T15:28:35.724Z,9.80
2023-04-20T15:31:03.722Z,9.80
2023-04-20T15:33:31.673Z,9.80
2023-04-20T15:35:59.726Z,9.80
2023-04-20T15:38:27.664Z,9.70
2023-04-20T15:40:57.005Z,9.60
2023-04-20T15:43:25.060Z,9.60
2023-04-20T15:45:53.086Z,9.60
2023-04-20T15:48:21.040Z,9.50
2023-04-20T15:50:52.450Z,9.60
2023-04-20T15:53:21.574Z,9.50
2023-04-20T15:55:49.597Z,9.60
2023-04-20T15:58:18.977Z,9.40
2023-04-20T16:00:47.026Z,9.40
2023-04-20T16:03:15.245Z,9.40
2023-04-20T16:05:43.354Z,9.50
2023-04-20T16:08:13.062Z,9.50
2023-04-20T16:10:41.085Z,9.50
2023-04-20T16:13:09.041Z,9.50
2023-04-20T16:15:39.723Z,9.40
2023-04-20T16:18:07.800Z,9.40
2023-04-20T16:20:35.930Z,9.30
2023-04-20T16:23:03.884Z,9.30
2023-04-20T16:25:34.039Z,9.40
2023-04-20T16:28:02.012Z,9.40
2023-04-20T16:30:29.977Z,9.30
2023-04-20T16:32:59.799Z,9.30
2023-04-20T16:35:28.098Z,9.30
2023-04-20T16:37:56.800Z,9.30
2023-04-20T16:40:26.170Z,9.30
2023-04-20T16:42:54.142Z,9.30
2023-04-20T16:45:22.111Z,9.30
2023-04-20T16:47:51.356Z,9.40
2023-04-20T16:50:20.802Z,9.30
2023-04-20T16:52:49.115Z,9.30
2023-04-20T16:55:17.223Z,9.30
2023-04-20T16:57:45.181Z,9.40
2023-04-20T17:00:14.791Z,9.40
2023-04-20T17:02:43.014Z,9.40
2023-04-20T17:05:11.897Z,9.40
2023-04-20T17:07:41.201Z,9.30
2023-04-20T17:10:09.683Z,9.30
2023-04-20T17:12:39.212Z,9.30
2023-04-20T17:15:09.817Z,9.40
2023-04-20T17:17:37.841Z,9.40
2023-04-20T17:20:07.505Z,9.30
2023-04-20T17:22:36.451Z,9.20
2023-04-20T17:25:08.021Z,9.30
2023-04-20T17:27:36.198Z,9.20
2023-04-20T17:30:04.640Z,9.20
2023-04-20T17:32:33.409Z,9.10
2023-04-20T17:35:01.477Z,9.00
2023-04-20T17:37:29.455Z,9.00
2023-04-20T17:39:57.437Z,9.00
2023-04-20T17:42:26.771Z,9.00
2023-04-20T17:44:54.735Z,9.00
2023-04-20T17:47:22.702Z,9.00
2023-04-20T17:49:50.952Z,8.90
2023-04-20T17:52:19.680Z,9.00
2023-04-20T17:54:47.907Z,8.90
2023-04-20T17:57:15.840Z,8.90
2023-04-20T17:59:45.163Z,9.00
2023-04-20T18:02:14.157Z,9.00
2023-04-20T18:04:42.454Z,9.00
2023-04-20T18:07:13.129Z,8.90
2023-04-20T18:09:41.323Z,8.90
2023-04-20T18:12:10.748Z,8.90
2023-04-20T18:14:38.751Z,8.80
2023-04-20T18:17:08.189Z,8.90
2023-04-20T18:19:36.204Z,8.80
2023-04-20T18:22:04.465Z,8.80
2023-04-20T18:24:32.407Z,8.80
2023-04-20T18:27:01.281Z,8.80
2023-04-20T18:29:29.869Z,8.80
2023-04-20T18:31:59.412Z,8.80
2023-04-20T18:34:30.991Z,8.70
2023-04-20T18:36:59.880Z,8.70
2023-04-20T18:39:27.893Z,8.60
2023-04-20T18:41:55.866Z,8.60
2023-04-20T18:44:23.888Z,8.70
2023-04-20T18:46:51.977Z,8.70
2023-04-20T18:49:19.988Z,8.60
2023-04-20T18:51:49.355Z,8.60
2023-04-20T18:54:17.502Z,8.70
2023-04-20T18:56:45.686Z,8.60
2023-04-20T18:59:13.625Z,8.50
2023-04-20T19:01:41.641Z,8.50
2023-04-20T19:04:10.132Z,8.50
2023-04-20T19:06:38.217Z,8.40
2023-04-20T19:09:08.357Z,8.40
2023-04-20T19:11:36.665Z,8.50
2023-04-20T19:14:04.710Z,8.50
2023-04-20T19:16:33.531Z,8.50
2023-04-20T19:19:02.925Z,8.40
2023-04-20T19:21:32.051Z,8.40
2023-04-20T19:24:00.033Z,8.30
2023-04-20T19:26:29.386Z,8.30
2023-04-20T19:28:58.194Z,8.30
2023-04-20T19:31:26.460Z,8.20
2023-04-20T19:33:56.550Z,8.30
2023-04-20T19:36:25.139Z,8.30
2023-04-20T19:38:53.070Z,8.30
2023-04-20T19:41:21.513Z,8.30
2023-04-20T19:43:51.121Z,8.40
2023-04-20T19:46:19.378Z,8.20
2023-04-20T19:48:47.485Z,8.20
2023-04-20T19:51:15.500Z,8.30
2023-04-20T19:53:43.572Z,8.30
2023-04-20T19:56:11.628Z,8.20
2023-04-20T19:58:39.672Z,8.30
2023-04-20T20:01:09.216Z,8.40
2023-04-20T20:03:37.837Z,8.30
2023-04-20T20:06:06.806Z,8.40
2023-04-20T20:08:34.803Z,8.50
2023-04-20T20:11:03.238Z,8.50
2023-04-20T20:13:31.881Z,8.40
2023-04-20T20:16:00.411Z,8.50
2023-04-20T20:18:29.864Z,8.50
2023-04-20T20:20:57.863Z,8.50
2023-04-20T20:23:26.023Z,8.50
2023-04-20T20:25:54.482Z,8.60
2023-04-20T20:28:22.456Z,8.60
2023-04-20T20:30:50.526Z,8.50
2023-04-20T20:33:19.656Z,8.50
2023-04-20T20:35:49.079Z,8.50
2023-04-20T20:38:17.917Z,8.50
2023-04-20T20:40:45.945Z,8.50
2023-04-20T20:43:14.099Z,8.60
2023-04-20T20:45:42.449Z,8.50
2023-04-20T20:48:10.468Z,8.60
2023-04-20T20:50:38.465Z,8.60
2023-04-20T20:53:08.961Z,8.50
2023-04-20T20:55:37.008Z,8.50
2023-04-20T20:58:05.024Z,8.40
2023-04-20T21:00:33.468Z,8.40
2023-04-20T21:03:02.148Z,8.40
2023-04-20T21:05:32.617Z,8.40
2023-04-20T21:08:02.528Z,8.50
2023-04-20T21:10:34.914Z,8.30
2023-04-20T21:13:04.113Z,8.40
2023-04-20T21:15:32.092Z,8.50
2023-04-20T21:18:00.130Z,8.60
2023-04-20T21:20:28.104Z,8.50
2023-04-20T21:22:56.067Z,8.50
2023-04-20T21:25:24.252Z,8.60
2023-04-20T21:27:53.574Z,8.50
2023-04-20T21:30:21.602Z,8.60
2023-04-20T21:32:49.614Z,8.60
2023-04-20T21:35:17.563Z,8.70
2023-04-20T21:37:45.628Z,8.60
2023-04-20T21:40:13.910Z,8.60
2023-04-20T21:42:41.901Z,8.70
2023-04-20T21:45:12.298Z,8.60
2023-04-20T21:47:40.271Z,8.60
2023-04-20T21:50:08.593Z,8.60
2023-04-20T21:52:36.591Z,8.50
2023-04-20T21:55:04.680Z,8.70
2023-04-20T21:57:32.642Z,8.60
2023-04-20T22:00:00.577Z,8.50
2023-04-20T22:02:30.077Z,8.60
2023-04-20T22:04:58.084Z,8.60
2023-04-20T22:07:27.584Z,8.60
2023-04-20T22:09:55.536Z,8.70
2023-04-20T22:12:38.393Z,8.70
2023-04-20T22:15:10.268Z,8.70
2023-04-20T22:17:40.038Z,8.70
2023-04-20T22:20:10.562Z,8.70
2023-04-20T22:22:39.356Z,8.70
2023-04-20T22:25:09.047Z,8.80
2023-04-20T22:27:38.034Z,8.80
2023-04-20T22:30:09.352Z,8.70
2023-04-20T22:32:39.184Z,8.60
2023-04-20T22:35:07.770Z,8.60
2023-04-20T22:37:35.935Z,8.70
2023-04-20T22:40:05.939Z,8.70
2023-04-20T22:42:34.780Z,8.80
2023-04-20T22:45:02.784Z,8.80
2023-04-20T22:47:30.894Z,8.80
2023-04-20T22:50:00.352Z,8.80
2023-04-20T22:52:28.346Z,8.80
2023-04-20T22:54:56.350Z,8.90
2023-04-20T22:57:24.430Z,8.90
2023-04-20T22:59:52.407Z,8.90
2023-04-20T23:02:20.614Z,9.10
2023-04-20T23:04:48.700Z,8.90
2023-04-20T23:07:19.543Z,9.00
2023-04-20T23:09:48.117Z,9.00
2023-04-20T23:12:16.464Z,9.00
2023-04-20T23:14:44.471Z,9.00
2023-04-20T23:17:12.486Z,8.90
2023-04-20T23:19:41.133Z,9.00
2023-04-20T23:22:09.726Z,9.10
2023-04-20T23:24:39.193Z,9.10
2023-04-20T23:27:07.172Z,9.10
2023-04-20T23:29:35.141Z,9.10
2023-04-20T23:32:03.249Z,9.10
2023-04-20T23:34:31.574Z,9.00
2023-04-20T23:36:59.743Z,9.10
2023-04-20T23:39:27.869Z,9.10
2023-04-20T23:41:57.860Z,9.10
2023-04-20T23:44:25.912Z,9.10
2023-04-20T23:46:53.920Z,9.20
2023-04-20T23:49:21.890Z,9.20
2023-04-20T23:51:49.882Z,9.10
2023-04-20T23:54:17.896Z,9.20
2023-04-20T23:56:45.895Z,9.20
2023-04-20T23:59:15.228Z,9.30
